sensor_id;sensor_type;location;lat;lon;timestamp;P1;durP1;ratioP1;P2;durP2;ratioP2
54641;SDS011;40536;53.194;5.728;2023-08-06T00:02:24;134.10;;;128.00;;
54641;SDS011;40536;53.194;5.728;2023-08-06T00:04:50;139.40;;;132.95;;
54641;SDS011;40536;53.194;5.728;2023-08-06T00:07:15;118.78;;;113.15;;
54641;SDS011;40536;53.194;5.728;2023-08-06T00:09:41;120.57;;;114.95;;
54641;SDS011;40536;53.194;5.728;2023-08-06T00:12:07;144.30;;;137.40;;
54641;SDS011;40536;53.194;5.728;2023-08-06T00:14:32;142.35;;;135.40;;
54641;SDS011;40536;53.194;5.728;2023-08-06T00:16:58;128.88;;;122.68;;
54641;SDS011;40536;53.194;5.728;2023-08-06T00:19:24;147.35;;;140.63;;
54641;SDS011;40536;53.194;5.728;2023-08-06T00:21:50;139.80;;;133.10;;
54641;SDS011;40536;53.194;5.728;2023-08-06T00:24:15;152.15;;;145.10;;
54641;SDS011;40536;53.194;5.728;2023-08-06T00:26:41;106.20;;;100.97;;
54641;SDS011;40536;53.194;5.728;2023-08-06T00:29:06;136.15;;;129.73;;
54641;SDS011;40536;53.194;5.728;2023-08-06T00:31:32;140.77;;;134.10;;
54641;SDS011;40536;53.194;5.728;2023-08-06T00:33:58;141.27;;;134.43;;
54641;SDS011;40536;53.194;5.728;2023-08-06T00:36:23;148.00;;;140.63;;
54641;SDS011;40536;53.194;5.728;2023-08-06T00:38:49;205.93;;;195.70;;
54641;SDS011;40536;53.194;5.728;2023-08-06T00:41:14;173.95;;;166.02;;
54641;SDS011;40536;53.194;5.728;2023-08-06T00:43:40;172.88;;;164.52;;
54641;SDS011;40536;53.194;5.728;2023-08-06T00:46:06;191.02;;;182.35;;
54641;SDS011;40536;53.194;5.728;2023-08-06T00:48:32;164.98;;;156.95;;
54641;SDS011;40536;53.194;5.728;2023-08-06T00:50:58;184.30;;;175.75;;
54641;SDS011;40536;53.194;5.728;2023-08-06T00:53:25;195.68;;;186.80;;
54641;SDS011;40536;53.194;5.728;2023-08-06T00:55:51;212.60;;;202.63;;
54641;SDS011;40536;53.194;5.728;2023-08-06T00:58:17;207.15;;;197.35;;
54641;SDS011;40536;53.194;5.728;2023-08-06T01:00:43;178.73;;;170.23;;
54641;SDS011;40536;53.194;5.728;2023-08-06T01:03:08;198.75;;;189.35;;
54641;SDS011;40536;53.194;5.728;2023-08-06T01:05:34;198.77;;;189.35;;
54641;SDS011;40536;53.194;5.728;2023-08-06T01:13:41;177.32;;;168.65;;
54641;SDS011;40536;53.194;5.728;2023-08-06T01:16:17;178.90;;;170.25;;
54641;SDS011;40536;53.194;5.728;2023-08-06T01:18:43;190.88;;;181.68;;
54641;SDS011;40536;53.194;5.728;2023-08-06T01:21:14;178.45;;;169.68;;
54641;SDS011;40536;53.194;5.728;2023-08-06T01:23:43;159.30;;;151.40;;
54641;SDS011;40536;53.194;5.728;2023-08-06T01:26:30;168.95;;;160.55;;
54641;SDS011;40536;53.194;5.728;2023-08-06T01:31:48;173.55;;;165.25;;
54641;SDS011;40536;53.194;5.728;2023-08-06T01:34:18;175.90;;;167.27;;
54641;SDS011;40536;53.194;5.728;2023-08-06T01:36:53;149.20;;;142.05;;
54641;SDS011;40536;53.194;5.728;2023-08-06T01:39:19;154.57;;;146.88;;
54641;SDS011;40536;53.194;5.728;2023-08-06T01:41:46;159.50;;;151.30;;
54641;SDS011;40536;53.194;5.728;2023-08-06T01:44:13;169.63;;;161.23;;
54641;SDS011;40536;53.194;5.728;2023-08-06T01:46:40;148.20;;;140.40;;
54641;SDS011;40536;53.194;5.728;2023-08-06T01:49:06;151.20;;;143.75;;
54641;SDS011;40536;53.194;5.728;2023-08-06T01:51:31;162.70;;;154.60;;
54641;SDS011;40536;53.194;5.728;2023-08-06T01:53:57;139.23;;;132.15;;
54641;SDS011;40536;53.194;5.728;2023-08-06T01:56:23;146.32;;;138.77;;
54641;SDS011;40536;53.194;5.728;2023-08-06T01:58:48;144.07;;;136.80;;
54641;SDS011;40536;53.194;5.728;2023-08-06T02:01:14;106.00;;;100.63;;
54641;SDS011;40536;53.194;5.728;2023-08-06T02:03:39;110.40;;;104.57;;
54641;SDS011;40536;53.194;5.728;2023-08-06T02:06:05;109.35;;;103.75;;
54641;SDS011;40536;53.194;5.728;2023-08-06T02:08:31;125.90;;;119.50;;
54641;SDS011;40536;53.194;5.728;2023-08-06T02:10:56;135.25;;;128.50;;
54641;SDS011;40536;53.194;5.728;2023-08-06T02:13:23;122.88;;;116.57;;
54641;SDS011;40536;53.194;5.728;2023-08-06T02:15:49;101.93;;;96.55;;
54641;SDS011;40536;53.194;5.728;2023-08-06T02:18:15;78.28;;;73.50;;
54641;SDS011;40536;53.194;5.728;2023-08-06T02:20:42;97.68;;;92.20;;
54641;SDS011;40536;53.194;5.728;2023-08-06T02:23:07;110.25;;;104.50;;
54641;SDS011;40536;53.194;5.728;2023-08-06T02:25:33;131.57;;;124.38;;
54641;SDS011;40536;53.194;5.728;2023-08-06T02:27:59;139.13;;;132.18;;
54641;SDS011;40536;53.194;5.728;2023-08-06T02:30:25;149.60;;;142.02;;
54641;SDS011;40536;53.194;5.728;2023-08-06T02:32:51;165.35;;;157.07;;
54641;SDS011;40536;53.194;5.728;2023-08-06T02:35:16;163.13;;;154.93;;
54641;SDS011;40536;53.194;5.728;2023-08-06T02:37:42;165.00;;;156.73;;
54641;SDS011;40536;53.194;5.728;2023-08-06T02:40:08;171.68;;;163.48;;
54641;SDS011;40536;53.194;5.728;2023-08-06T02:42:33;151.60;;;143.93;;
54641;SDS011;40536;53.194;5.728;2023-08-06T02:44:59;146.02;;;138.77;;
54641;SDS011;40536;53.194;5.728;2023-08-06T02:47:25;155.13;;;147.10;;
54641;SDS011;40536;53.194;5.728;2023-08-06T02:49:50;132.45;;;125.85;;
54641;SDS011;40536;53.194;5.728;2023-08-06T02:52:16;132.35;;;125.60;;
54641;SDS011;40536;53.194;5.728;2023-08-06T02:54:42;120.53;;;114.25;;
54641;SDS011;40536;53.194;5.728;2023-08-06T02:57:08;146.35;;;139.07;;
54641;SDS011;40536;53.194;5.728;2023-08-06T02:59:33;162.02;;;153.85;;
54641;SDS011;40536;53.194;5.728;2023-08-06T03:01:59;187.20;;;178.15;;
54641;SDS011;40536;53.194;5.728;2023-08-06T03:04:24;188.30;;;179.20;;
54641;SDS011;40536;53.194;5.728;2023-08-06T03:06:50;177.35;;;168.20;;
54641;SDS011;40536;53.194;5.728;2023-08-06T03:09:19;191.27;;;182.15;;
54641;SDS011;40536;53.194;5.728;2023-08-06T03:11:44;185.85;;;177.05;;
54641;SDS011;40536;53.194;5.728;2023-08-06T03:14:10;202.63;;;192.90;;
54641;SDS011;40536;53.194;5.728;2023-08-06T03:16:36;214.80;;;204.40;;
54641;SDS011;40536;53.194;5.728;2023-08-06T03:19:03;215.00;;;204.55;;
54641;SDS011;40536;53.194;5.728;2023-08-06T03:21:29;184.90;;;175.98;;
54641;SDS011;40536;53.194;5.728;2023-08-06T03:23:54;215.07;;;204.77;;
54641;SDS011;40536;53.194;5.728;2023-08-06T03:26:20;198.98;;;189.32;;
54641;SDS011;40536;53.194;5.728;2023-08-06T03:28:46;184.88;;;175.93;;
54641;SDS011;40536;53.194;5.728;2023-08-06T03:31:11;148.63;;;141.10;;
54641;SDS011;40536;53.194;5.728;2023-08-06T03:33:37;215.77;;;205.52;;
54641;SDS011;40536;53.194;5.728;2023-08-06T03:36:02;214.45;;;204.32;;
54641;SDS011;40536;53.194;5.728;2023-08-06T03:38:28;204.57;;;194.32;;
54641;SDS011;40536;53.194;5.728;2023-08-06T03:40:54;147.60;;;138.55;;
54641;SDS011;40536;53.194;5.728;2023-08-06T03:43:19;128.55;;;121.90;;
54641;SDS011;40536;53.194;5.728;2023-08-06T03:45:45;90.72;;;85.50;;
54641;SDS011;40536;53.194;5.728;2023-08-06T03:48:11;90.45;;;85.55;;
54641;SDS011;40536;53.194;5.728;2023-08-06T03:50:36;117.18;;;110.68;;
54641;SDS011;40536;53.194;5.728;2023-08-06T03:53:03;96.55;;;91.25;;
54641;SDS011;40536;53.194;5.728;2023-08-06T03:55:28;94.18;;;89.20;;
54641;SDS011;40536;53.194;5.728;2023-08-06T03:57:54;128.57;;;122.03;;
54641;SDS011;40536;53.194;5.728;2023-08-06T04:00:20;114.97;;;108.90;;
54641;SDS011;40536;53.194;5.728;2023-08-06T04:02:45;100.45;;;95.00;;
54641;SDS011;40536;53.194;5.728;2023-08-06T04:05:11;162.63;;;154.50;;
54641;SDS011;40536;53.194;5.728;2023-08-06T04:07:37;159.77;;;152.00;;
54641;SDS011;40536;53.194;5.728;2023-08-06T04:10:03;183.57;;;174.70;;
54641;SDS011;40536;53.194;5.728;2023-08-06T04:12:30;175.05;;;166.38;;
54641;SDS011;40536;53.194;5.728;2023-08-06T04:14:57;163.70;;;155.55;;
54641;SDS011;40536;53.194;5.728;2023-08-06T04:17:25;156.26;;;148.20;;
54641;SDS011;40536;53.194;5.728;2023-08-06T04:19:51;170.27;;;161.88;;
54641;SDS011;40536;53.194;5.728;2023-08-06T04:22:18;128.13;;;121.53;;
54641;SDS011;40536;53.194;5.728;2023-08-06T04:24:44;142.00;;;135.00;;
54641;SDS011;40536;53.194;5.728;2023-08-06T04:27:10;124.10;;;117.80;;
54641;SDS011;40536;53.194;5.728;2023-08-06T04:29:37;122.22;;;115.90;;
54641;SDS011;40536;53.194;5.728;2023-08-06T04:32:03;111.35;;;105.55;;
54641;SDS011;40536;53.194;5.728;2023-08-06T04:34:33;147.75;;;140.23;;
54641;SDS011;40536;53.194;5.728;2023-08-06T04:37:00;133.02;;;126.50;;
54641;SDS011;40536;53.194;5.728;2023-08-06T04:39:26;162.00;;;153.70;;
54641;SDS011;40536;53.194;5.728;2023-08-06T04:41:51;134.90;;;128.18;;
54641;SDS011;40536;53.194;5.728;2023-08-06T04:44:17;158.45;;;150.55;;
54641;SDS011;40536;53.194;5.728;2023-08-06T04:46:43;146.75;;;139.50;;
54641;SDS011;40536;53.194;5.728;2023-08-06T04:49:08;169.40;;;161.18;;
54641;SDS011;40536;53.194;5.728;2023-08-06T04:51:34;155.02;;;147.00;;
54641;SDS011;40536;53.194;5.728;2023-08-06T04:54:00;192.88;;;183.30;;
54641;SDS011;40536;53.194;5.728;2023-08-06T04:56:26;209.02;;;199.32;;
54641;SDS011;40536;53.194;5.728;2023-08-06T04:58:52;210.82;;;201.00;;
54641;SDS011;40536;53.194;5.728;2023-08-06T05:01:17;218.55;;;208.02;;
54641;SDS011;40536;53.194;5.728;2023-08-06T05:03:43;122.15;;;115.80;;
54641;SDS011;40536;53.194;5.728;2023-08-06T05:06:08;166.00;;;157.85;;
54641;SDS011;40536;53.194;5.728;2023-08-06T05:08:35;174.23;;;166.00;;
54641;SDS011;40536;53.194;5.728;2023-08-06T05:11:01;145.15;;;137.93;;
54641;SDS011;40536;53.194;5.728;2023-08-06T05:13:27;132.68;;;125.13;;
54641;SDS011;40536;53.194;5.728;2023-08-06T05:15:55;87.15;;;82.18;;
54641;SDS011;40536;53.194;5.728;2023-08-06T05:18:21;108.05;;;102.15;;
54641;SDS011;40536;53.194;5.728;2023-08-06T05:20:47;85.65;;;80.82;;
54641;SDS011;40536;53.194;5.728;2023-08-06T05:23:13;173.75;;;165.02;;
54641;SDS011;40536;53.194;5.728;2023-08-06T05:25:38;105.50;;;99.80;;
54641;SDS011;40536;53.194;5.728;2023-08-06T05:28:04;142.15;;;134.95;;
54641;SDS011;40536;53.194;5.728;2023-08-06T05:30:30;189.48;;;180.27;;
54641;SDS011;40536;53.194;5.728;2023-08-06T05:32:56;140.52;;;133.18;;
54641;SDS011;40536;53.194;5.728;2023-08-06T05:35:22;237.57;;;226.05;;
54641;SDS011;40536;53.194;5.728;2023-08-06T05:37:48;243.43;;;231.73;;
54641;SDS011;40536;53.194;5.728;2023-08-06T05:40:13;213.48;;;203.15;;
54641;SDS011;40536;53.194;5.728;2023-08-06T05:42:39;208.85;;;198.60;;
54641;SDS011;40536;53.194;5.728;2023-08-06T05:45:06;176.82;;;167.95;;
54641;SDS011;40536;53.194;5.728;2023-08-06T05:47:32;140.30;;;132.90;;
54641;SDS011;40536;53.194;5.728;2023-08-06T05:49:57;97.30;;;92.20;;
54641;SDS011;40536;53.194;5.728;2023-08-06T05:52:23;67.95;;;63.90;;
54641;SDS011;40536;53.194;5.728;2023-08-06T05:54:49;60.45;;;56.53;;
54641;SDS011;40536;53.194;5.728;2023-08-06T05:57:15;60.90;;;57.10;;
54641;SDS011;40536;53.194;5.728;2023-08-06T05:59:41;75.25;;;71.03;;
54641;SDS011;40536;53.194;5.728;2023-08-06T06:02:06;59.60;;;55.67;;
54641;SDS011;40536;53.194;5.728;2023-08-06T06:04:32;61.92;;;58.22;;
54641;SDS011;40536;53.194;5.728;2023-08-06T06:06:58;50.63;;;47.22;;
54641;SDS011;40536;53.194;5.728;2023-08-06T06:09:23;53.95;;;50.42;;
54641;SDS011;40536;53.194;5.728;2023-08-06T06:11:49;60.95;;;57.20;;
54641;SDS011;40536;53.194;5.728;2023-08-06T06:14:16;65.15;;;61.13;;
54641;SDS011;40536;53.194;5.728;2023-08-06T06:16:42;64.70;;;60.70;;
54641;SDS011;40536;53.194;5.728;2023-08-06T06:19:08;59.25;;;55.55;;
54641;SDS011;40536;53.194;5.728;2023-08-06T06:21:33;63.65;;;59.83;;
54641;SDS011;40536;53.194;5.728;2023-08-06T06:23:59;53.17;;;50.03;;
54641;SDS011;40536;53.194;5.728;2023-08-06T06:26:24;56.17;;;52.78;;
54641;SDS011;40536;53.194;5.728;2023-08-06T06:28:50;40.53;;;37.83;;
54641;SDS011;40536;53.194;5.728;2023-08-06T06:31:16;43.78;;;40.85;;
54641;SDS011;40536;53.194;5.728;2023-08-06T06:33:42;46.58;;;43.67;;
54641;SDS011;40536;53.194;5.728;2023-08-06T06:36:07;47.92;;;44.83;;
54641;SDS011;40536;53.194;5.728;2023-08-06T06:38:33;31.58;;;29.27;;
54641;SDS011;40536;53.194;5.728;2023-08-06T06:40:59;40.63;;;37.83;;
54641;SDS011;40536;53.194;5.728;2023-08-06T06:43:25;34.22;;;31.48;;
54641;SDS011;40536;53.194;5.728;2023-08-06T06:45:57;29.20;;;27.00;;
54641;SDS011;40536;53.194;5.728;2023-08-06T06:48:28;26.83;;;24.40;;
54641;SDS011;40536;53.194;5.728;2023-08-06T06:50:54;22.05;;;20.23;;
54641;SDS011;40536;53.194;5.728;2023-08-06T06:53:21;20.27;;;18.48;;
54641;SDS011;40536;53.194;5.728;2023-08-06T06:55:52;45.22;;;42.47;;
54641;SDS011;40536;53.194;5.728;2023-08-06T06:58:28;20.98;;;19.13;;
54641;SDS011;40536;53.194;5.728;2023-08-06T07:00:53;30.75;;;28.52;;
54641;SDS011;40536;53.194;5.728;2023-08-06T07:03:19;22.50;;;20.67;;
54641;SDS011;40536;53.194;5.728;2023-08-06T07:05:45;24.35;;;22.27;;
54641;SDS011;40536;53.194;5.728;2023-08-06T07:08:11;25.60;;;23.77;;
54641;SDS011;40536;53.194;5.728;2023-08-06T07:10:37;25.67;;;23.73;;
54641;SDS011;40536;53.194;5.728;2023-08-06T07:13:03;29.25;;;27.17;;
54641;SDS011;40536;53.194;5.728;2023-08-06T07:15:29;25.40;;;23.55;;
54641;SDS011;40536;53.194;5.728;2023-08-06T07:17:54;26.52;;;24.73;;
54641;SDS011;40536;53.194;5.728;2023-08-06T07:20:20;24.67;;;22.83;;
54641;SDS011;40536;53.194;5.728;2023-08-06T07:22:46;27.10;;;25.10;;
54641;SDS011;40536;53.194;5.728;2023-08-06T07:25:12;36.00;;;33.75;;
54641;SDS011;40536;53.194;5.728;2023-08-06T07:27:38;31.80;;;29.63;;
54641;SDS011;40536;53.194;5.728;2023-08-06T07:30:04;32.78;;;30.73;;
54641;SDS011;40536;53.194;5.728;2023-08-06T07:32:30;39.67;;;37.38;;
54641;SDS011;40536;53.194;5.728;2023-08-06T07:34:56;40.47;;;38.05;;
54641;SDS011;40536;53.194;5.728;2023-08-06T07:37:25;37.38;;;35.20;;
54641;SDS011;40536;53.194;5.728;2023-08-06T07:39:53;47.45;;;44.83;;
54641;SDS011;40536;53.194;5.728;2023-08-06T07:42:19;40.58;;;38.28;;
54641;SDS011;40536;53.194;5.728;2023-08-06T07:44:52;42.55;;;40.15;;
54641;SDS011;40536;53.194;5.728;2023-08-06T07:47:19;54.35;;;51.47;;
54641;SDS011;40536;53.194;5.728;2023-08-06T07:49:45;37.20;;;34.95;;
54641;SDS011;40536;53.194;5.728;2023-08-06T07:52:10;53.40;;;50.53;;
54641;SDS011;40536;53.194;5.728;2023-08-06T07:54:36;42.72;;;40.42;;
54641;SDS011;40536;53.194;5.728;2023-08-06T07:57:02;54.53;;;51.72;;
54641;SDS011;40536;53.194;5.728;2023-08-06T07:59:28;55.55;;;52.75;;
54641;SDS011;40536;53.194;5.728;2023-08-06T08:01:53;42.38;;;40.17;;
54641;SDS011;40536;53.194;5.728;2023-08-06T08:04:19;50.38;;;47.67;;
54641;SDS011;40536;53.194;5.728;2023-08-06T08:06:46;45.72;;;43.22;;
54641;SDS011;40536;53.194;5.728;2023-08-06T08:09:12;37.05;;;35.05;;
54641;SDS011;40536;53.194;5.728;2023-08-06T08:11:39;31.15;;;29.35;;
54641;SDS011;40536;53.194;5.728;2023-08-06T08:14:05;32.95;;;31.08;;
54641;SDS011;40536;53.194;5.728;2023-08-06T08:16:31;30.75;;;28.92;;
54641;SDS011;40536;53.194;5.728;2023-08-06T08:18:57;29.73;;;28.02;;
54641;SDS011;40536;53.194;5.728;2023-08-06T08:21:22;27.05;;;25.05;;
54641;SDS011;40536;53.194;5.728;2023-08-06T08:23:49;25.25;;;23.75;;
54641;SDS011;40536;53.194;5.728;2023-08-06T08:26:15;24.98;;;23.38;;
54641;SDS011;40536;53.194;5.728;2023-08-06T08:28:41;20.55;;;19.15;;
54641;SDS011;40536;53.194;5.728;2023-08-06T08:31:10;22.95;;;21.55;;
54641;SDS011;40536;53.194;5.728;2023-08-06T08:33:37;21.15;;;19.75;;
54641;SDS011;40536;53.194;5.728;2023-08-06T08:36:03;16.73;;;15.43;;
54641;SDS011;40536;53.194;5.728;2023-08-06T08:38:29;15.43;;;14.13;;
54641;SDS011;40536;53.194;5.728;2023-08-06T08:40:54;14.95;;;13.75;;
54641;SDS011;40536;53.194;5.728;2023-08-06T08:43:20;17.65;;;16.45;;
54641;SDS011;40536;53.194;5.728;2023-08-06T08:45:49;17.70;;;16.40;;
54641;SDS011;40536;53.194;5.728;2023-08-06T08:48:16;14.75;;;13.65;;
54641;SDS011;40536;53.194;5.728;2023-08-06T08:50:44;14.00;;;12.95;;
54641;SDS011;40536;53.194;5.728;2023-08-06T08:53:11;13.30;;;12.30;;
54641;SDS011;40536;53.194;5.728;2023-08-06T08:55:39;11.57;;;10.65;;
54641;SDS011;40536;53.194;5.728;2023-08-06T08:58:05;12.13;;;11.02;;
54641;SDS011;40536;53.194;5.728;2023-08-06T09:00:31;9.27;;;8.35;;
54641;SDS011;40536;53.194;5.728;2023-08-06T09:02:57;8.77;;;7.88;;
54641;SDS011;40536;53.194;5.728;2023-08-06T09:05:26;8.40;;;7.47;;
54641;SDS011;40536;53.194;5.728;2023-08-06T09:07:55;7.50;;;6.80;;
54641;SDS011;40536;53.194;5.728;2023-08-06T09:10:30;7.82;;;7.13;;
54641;SDS011;40536;53.194;5.728;2023-08-06T09:12:56;7.55;;;6.85;;
54641;SDS011;40536;53.194;5.728;2023-08-06T09:15:26;7.40;;;6.70;;
54641;SDS011;40536;53.194;5.728;2023-08-06T09:17:53;8.48;;;6.13;;
54641;SDS011;40536;53.194;5.728;2023-08-06T09:20:19;6.68;;;5.97;;
54641;SDS011;40536;53.194;5.728;2023-08-06T09:22:44;7.25;;;5.90;;
54641;SDS011;40536;53.194;5.728;2023-08-06T09:25:10;6.05;;;5.43;;
54641;SDS011;40536;53.194;5.728;2023-08-06T09:27:38;7.22;;;5.90;;
54641;SDS011;40536;53.194;5.728;2023-08-06T09:30:05;7.38;;;5.55;;
54641;SDS011;40536;53.194;5.728;2023-08-06T09:32:44;5.97;;;5.38;;
54641;SDS011;40536;53.194;5.728;2023-08-06T09:35:19;6.35;;;5.30;;
54641;SDS011;40536;53.194;5.728;2023-08-06T09:37:45;6.68;;;5.43;;
54641;SDS011;40536;53.194;5.728;2023-08-06T09:42:52;5.70;;;4.70;;
54641;SDS011;40536;53.194;5.728;2023-08-06T09:45:17;5.88;;;4.55;;
54641;SDS011;40536;53.194;5.728;2023-08-06T09:47:43;7.28;;;5.10;;
54641;SDS011;40536;53.194;5.728;2023-08-06T09:50:16;9.52;;;5.30;;
54641;SDS011;40536;53.194;5.728;2023-08-06T09:52:43;6.28;;;4.90;;
54641;SDS011;40536;53.194;5.728;2023-08-06T09:55:12;5.72;;;4.32;;
54641;SDS011;40536;53.194;5.728;2023-08-06T09:57:39;6.35;;;5.25;;
54641;SDS011;40536;53.194;5.728;2023-08-06T10:00:07;6.03;;;4.85;;
54641;SDS011;40536;53.194;5.728;2023-08-06T10:02:35;5.85;;;5.03;;
54641;SDS011;40536;53.194;5.728;2023-08-06T10:05:05;5.85;;;4.90;;
54641;SDS011;40536;53.194;5.728;2023-08-06T10:07:32;6.80;;;4.35;;
54641;SDS011;40536;53.194;5.728;2023-08-06T10:09:59;5.20;;;4.25;;
54641;SDS011;40536;53.194;5.728;2023-08-06T10:12:25;7.20;;;4.03;;
54641;SDS011;40536;53.194;5.728;2023-08-06T10:14:54;5.57;;;4.10;;
54641;SDS011;40536;53.194;5.728;2023-08-06T10:17:22;6.85;;;4.50;;
54641;SDS011;40536;53.194;5.728;2023-08-06T10:19:49;5.45;;;4.53;;
54641;SDS011;40536;53.194;5.728;2023-08-06T10:22:16;6.10;;;4.60;;
54641;SDS011;40536;53.194;5.728;2023-08-06T10:24:50;5.78;;;4.53;;
54641;SDS011;40536;53.194;5.728;2023-08-06T10:27:27;5.15;;;4.25;;
54641;SDS011;40536;53.194;5.728;2023-08-06T10:32:46;5.80;;;5.00;;
54641;SDS011;40536;53.194;5.728;2023-08-06T10:35:33;6.78;;;5.18;;
54641;SDS011;40536;53.194;5.728;2023-08-06T10:38:03;7.00;;;5.45;;
54641;SDS011;40536;53.194;5.728;2023-08-06T10:40:33;6.15;;;5.55;;
54641;SDS011;40536;53.194;5.728;2023-08-06T10:43:00;7.68;;;5.30;;
54641;SDS011;40536;53.194;5.728;2023-08-06T10:45:26;6.40;;;4.90;;
54641;SDS011;40536;53.194;5.728;2023-08-06T10:47:54;6.25;;;4.93;;
54641;SDS011;40536;53.194;5.728;2023-08-06T10:50:21;6.45;;;5.13;;
54641;SDS011;40536;53.194;5.728;2023-08-06T10:52:47;5.22;;;4.47;;
54641;SDS011;40536;53.194;5.728;2023-08-06T10:55:14;6.07;;;4.95;;
54641;SDS011;40536;53.194;5.728;2023-08-06T10:57:46;7.47;;;5.47;;
54641;SDS011;40536;53.194;5.728;2023-08-06T11:00:12;6.10;;;5.47;;
54641;SDS011;40536;53.194;5.728;2023-08-06T11:02:39;6.20;;;5.60;;
54641;SDS011;40536;53.194;5.728;2023-08-06T11:05:08;6.03;;;5.32;;
54641;SDS011;40536;53.194;5.728;2023-08-06T11:07:34;6.30;;;5.07;;
54641;SDS011;40536;53.194;5.728;2023-08-06T11:10:07;6.60;;;5.90;;
54641;SDS011;40536;53.194;5.728;2023-08-06T11:12:34;6.97;;;5.63;;
54641;SDS011;40536;53.194;5.728;2023-08-06T11:15:00;5.30;;;4.80;;
54641;SDS011;40536;53.194;5.728;2023-08-06T11:17:30;7.10;;;5.45;;
54641;SDS011;40536;53.194;5.728;2023-08-06T11:19:58;7.05;;;5.53;;
54641;SDS011;40536;53.194;5.728;2023-08-06T11:22:25;5.97;;;4.88;;
54641;SDS011;40536;53.194;5.728;2023-08-06T11:24:51;7.00;;;5.18;;
54641;SDS011;40536;53.194;5.728;2023-08-06T11:27:18;6.50;;;5.03;;
54641;SDS011;40536;53.194;5.728;2023-08-06T11:29:44;7.80;;;5.60;;
54641;SDS011;40536;53.194;5.728;2023-08-06T11:32:10;6.20;;;5.10;;
54641;SDS011;40536;53.194;5.728;2023-08-06T11:34:36;5.80;;;5.20;;
54641;SDS011;40536;53.194;5.728;2023-08-06T11:37:02;5.97;;;4.97;;
54641;SDS011;40536;53.194;5.728;2023-08-06T11:39:31;6.63;;;4.47;;
54641;SDS011;40536;53.194;5.728;2023-08-06T11:42:01;6.18;;;4.80;;
54641;SDS011;40536;53.194;5.728;2023-08-06T11:44:32;5.25;;;4.72;;
54641;SDS011;40536;53.194;5.728;2023-08-06T11:47:04;6.40;;;4.55;;
54641;SDS011;40536;53.194;5.728;2023-08-06T11:49:49;6.45;;;4.68;;
54641;SDS011;40536;53.194;5.728;2023-08-06T11:52:18;7.05;;;4.88;;
54641;SDS011;40536;53.194;5.728;2023-08-06T11:55:02;6.50;;;4.88;;
54641;SDS011;40536;53.194;5.728;2023-08-06T11:57:33;7.15;;;4.70;;
54641;SDS011;40536;53.194;5.728;2023-08-06T12:00:03;6.20;;;5.30;;
54641;SDS011;40536;53.194;5.728;2023-08-06T12:02:34;5.85;;;4.88;;
54641;SDS011;40536;53.194;5.728;2023-08-06T12:05:20;5.25;;;4.75;;
54641;SDS011;40536;53.194;5.728;2023-08-06T12:07:57;6.38;;;5.43;;
54641;SDS011;40536;53.194;5.728;2023-08-06T12:10:25;5.93;;;5.32;;
54641;SDS011;40536;53.194;5.728;2023-08-06T12:12:51;8.48;;;5.50;;
54641;SDS011;40536;53.194;5.728;2023-08-06T12:15:18;7.47;;;5.93;;
54641;SDS011;40536;53.194;5.728;2023-08-06T12:17:44;6.45;;;5.85;;
54641;SDS011;40536;53.194;5.728;2023-08-06T12:20:10;8.63;;;6.43;;
54641;SDS011;40536;53.194;5.728;2023-08-06T12:22:36;8.10;;;7.20;;
54641;SDS011;40536;53.194;5.728;2023-08-06T12:25:04;8.52;;;7.82;;
54641;SDS011;40536;53.194;5.728;2023-08-06T12:27:36;8.88;;;8.07;;
54641;SDS011;40536;53.194;5.728;2023-08-06T12:30:03;8.70;;;7.07;;
54641;SDS011;40536;53.194;5.728;2023-08-06T12:32:29;8.82;;;7.97;;
54641;SDS011;40536;53.194;5.728;2023-08-06T12:34:55;8.27;;;7.57;;
54641;SDS011;40536;53.194;5.728;2023-08-06T12:37:21;8.52;;;7.63;;
54641;SDS011;40536;53.194;5.728;2023-08-06T12:39:48;8.02;;;7.30;;
54641;SDS011;40536;53.194;5.728;2023-08-06T12:42:13;8.13;;;7.43;;
54641;SDS011;40536;53.194;5.728;2023-08-06T12:44:39;8.07;;;7.25;;
54641;SDS011;40536;53.194;5.728;2023-08-06T12:47:05;8.43;;;7.63;;
54641;SDS011;40536;53.194;5.728;2023-08-06T12:49:31;8.75;;;7.95;;
54641;SDS011;40536;53.194;5.728;2023-08-06T12:51:58;8.95;;;8.20;;
54641;SDS011;40536;53.194;5.728;2023-08-06T12:54:25;8.80;;;8.00;;
54641;SDS011;40536;53.194;5.728;2023-08-06T12:56:50;8.13;;;7.32;;
54641;SDS011;40536;53.194;5.728;2023-08-06T12:59:17;8.15;;;7.35;;
54641;SDS011;40536;53.194;5.728;2023-08-06T13:01:43;7.30;;;6.47;;
54641;SDS011;40536;53.194;5.728;2023-08-06T13:04:09;6.53;;;5.93;;
54641;SDS011;40536;53.194;5.728;2023-08-06T13:06:36;8.38;;;6.90;;
54641;SDS011;40536;53.194;5.728;2023-08-06T13:09:05;7.07;;;6.38;;
54641;SDS011;40536;53.194;5.728;2023-08-06T13:11:33;7.95;;;7.20;;
54641;SDS011;40536;53.194;5.728;2023-08-06T13:14:08;8.07;;;6.85;;
54641;SDS011;40536;53.194;5.728;2023-08-06T13:16:35;8.48;;;7.65;;
54641;SDS011;40536;53.194;5.728;2023-08-06T13:19:05;9.13;;;7.10;;
54641;SDS011;40536;53.194;5.728;2023-08-06T13:21:35;9.10;;;8.30;;
54641;SDS011;40536;53.194;5.728;2023-08-06T13:24:21;9.57;;;8.82;;
54641;SDS011;40536;53.194;5.728;2023-08-06T13:26:46;13.93;;;12.35;;
54641;SDS011;40536;53.194;5.728;2023-08-06T13:29:12;14.10;;;12.98;;
54641;SDS011;40536;53.194;5.728;2023-08-06T13:31:37;15.18;;;13.98;;
54641;SDS011;40536;53.194;5.728;2023-08-06T13:34:03;18.30;;;17.08;;
54641;SDS011;40536;53.194;5.728;2023-08-06T13:36:29;23.90;;;22.42;;
54641;SDS011;40536;53.194;5.728;2023-08-06T13:38:56;26.90;;;25.23;;
54641;SDS011;40536;53.194;5.728;2023-08-06T13:41:22;31.60;;;29.73;;
54641;SDS011;40536;53.194;5.728;2023-08-06T13:43:48;28.30;;;26.48;;
54641;SDS011;40536;53.194;5.728;2023-08-06T13:46:14;30.73;;;29.10;;
54641;SDS011;40536;53.194;5.728;2023-08-06T13:48:45;29.27;;;27.58;;
54641;SDS011;40536;53.194;5.728;2023-08-06T13:51:12;29.23;;;27.60;;
54641;SDS011;40536;53.194;5.728;2023-08-06T13:53:38;24.17;;;22.67;;
54641;SDS011;40536;53.194;5.728;2023-08-06T13:56:08;29.30;;;27.60;;
54641;SDS011;40536;53.194;5.728;2023-08-06T13:58:40;31.70;;;30.00;;
54641;SDS011;40536;53.194;5.728;2023-08-06T14:01:05;28.23;;;26.55;;
54641;SDS011;40536;53.194;5.728;2023-08-06T14:03:31;29.48;;;27.80;;
54641;SDS011;40536;53.194;5.728;2023-08-06T14:05:57;32.25;;;30.45;;
54641;SDS011;40536;53.194;5.728;2023-08-06T14:08:23;30.58;;;28.65;;
54641;SDS011;40536;53.194;5.728;2023-08-06T14:10:50;21.95;;;20.65;;
54641;SDS011;40536;53.194;5.728;2023-08-06T14:13:16;21.77;;;20.23;;
54641;SDS011;40536;53.194;5.728;2023-08-06T14:15:42;27.80;;;26.17;;
54641;SDS011;40536;53.194;5.728;2023-08-06T14:18:12;26.30;;;24.80;;
54641;SDS011;40536;53.194;5.728;2023-08-06T14:20:39;23.98;;;22.60;;
54641;SDS011;40536;53.194;5.728;2023-08-06T14:23:05;11.85;;;10.98;;
54641;SDS011;40536;53.194;5.728;2023-08-06T14:25:31;10.48;;;9.65;;
54641;SDS011;40536;53.194;5.728;2023-08-06T14:27:57;10.10;;;8.68;;
54641;SDS011;40536;53.194;5.728;2023-08-06T14:30:22;9.98;;;9.07;;
54641;SDS011;40536;53.194;5.728;2023-08-06T14:32:48;8.68;;;7.95;;
54641;SDS011;40536;53.194;5.728;2023-08-06T14:35:14;8.93;;;8.23;;